createdAt,value
2022-10-09T00:00:06.854Z,90.68
2022-10-09T00:01:06.846Z,90.47
2022-10-09T00:02:06.863Z,90.47
2022-10-09T00:03:06.799Z,90.84
2022-10-09T00:04:06.797Z,90.78
2022-10-09T00:05:06.853Z,90.99
2022-10-09T00:06:06.768Z,91.09
2022-10-09T00:07:06.775Z,91.50
2022-10-09T00:08:06.746Z,90.47
2022-10-09T00:09:06.734Z,90.68
2022-10-09T00:10:06.715Z,90.93
2022-10-09T00:11:06.728Z,91.44
2022-10-09T00:12:06.723Z,91.34
2022-10-09T00:13:06.691Z,91.30
2022-10-09T00:14:06.666Z,90.78
2022-10-09T00:15:06.658Z,91.03
2022-10-09T00:16:06.655Z,91.34
2022-10-09T00:17:06.716Z,91.44
2022-10-09T00:18:06.638Z,91.40
2022-10-09T00:19:06.629Z,91.44
2022-10-09T00:20:06.618Z,92.07
2022-10-09T00:21:06.608Z,92.07
2022-10-09T00:22:06.607Z,91.69
2022-10-09T00:23:06.584Z,91.49
2022-10-09T00:24:06.572Z,91.38
2022-10-09T00:25:06.566Z,91.32
2022-10-09T00:26:06.548Z,91.22
2022-10-09T00:27:06.554Z,91.47
2022-10-09T00:28:06.606Z,91.26
2022-10-09T00:29:06.519Z,91.47
2022-10-09T00:30:06.514Z,91.22
2022-10-09T00:31:06.555Z,91.26
2022-10-09T00:32:06.510Z,91.22
2022-10-09T00:33:06.480Z,91.94
2022-10-09T00:34:06.466Z,92.09
2022-10-09T00:35:06.461Z,92.87
2022-10-09T00:36:06.461Z,92.87
2022-10-09T00:37:06.433Z,93.08
2022-10-09T00:38:06.426Z,93.39
2022-10-09T00:39:06.418Z,93.08
2022-10-09T00:40:06.408Z,93.70
2022-10-09T00:41:06.386Z,93.24
2022-10-09T00:42:06.398Z,93.76
2022-10-09T00:43:06.377Z,93.76
2022-10-09T00:44:06.364Z,94.07
2022-10-09T00:45:06.345Z,94.07
2022-10-09T00:46:06.398Z,94.28
2022-10-09T00:47:06.348Z,94.07
2022-10-09T00:48:06.317Z,94.48
2022-10-09T00:49:06.309Z,95.00
2022-10-09T00:50:06.300Z,95.10
2022-10-09T00:51:06.286Z,95.00
2022-10-09T00:52:06.298Z,94.94
2022-10-09T00:53:06.263Z,95.00
2022-10-09T00:54:06.261Z,94.90
2022-10-09T00:55:06.251Z,94.28
2022-10-09T00:56:06.241Z,94.48
2022-10-09T00:57:06.240Z,94.59
2022-10-09T00:58:06.220Z,94.79
2022-10-09T00:59:06.208Z,94.90
2022-10-09T01:00:06.195Z,94.48
2022-10-09T01:01:07.231Z,94.43
2022-10-09T01:02:06.243Z,94.32
2022-10-09T01:03:06.162Z,94.79
2022-10-09T01:04:06.157Z,94.79
2022-10-09T01:05:06.136Z,94.63
2022-10-09T01:06:06.135Z,94.53
2022-10-09T01:07:06.145Z,95.25
2022-10-09T01:08:06.116Z,94.84
2022-10-09T01:09:06.093Z,94.63
2022-10-09T01:10:06.100Z,94.84
2022-10-09T01:11:06.095Z,94.53
2022-10-09T01:12:06.095Z,94.63
2022-10-09T01:13:06.063Z,94.69
2022-10-09T01:14:06.054Z,94.84
2022-10-09T01:15:06.048Z,94.63
2022-10-09T01:16:06.080Z,94.53
2022-10-09T01:17:06.036Z,94.63
2022-10-09T01:18:06.012Z,94.63
2022-10-09T01:19:06.003Z,94.94
2022-10-09T01:20:05.995Z,95.04
2022-10-09T01:21:05.971Z,95.09
2022-10-09T01:22:05.980Z,95.36
2022-10-09T01:23:05.957Z,95.19
2022-10-09T01:24:05.952Z,95.50
2022-10-09T01:25:05.943Z,95.50
2022-10-09T01:26:05.929Z,95.46
2022-10-09T01:27:05.954Z,95.25
2022-10-09T01:28:05.960Z,95.19
2022-10-09T01:29:06.884Z,95.50
2022-10-09T01:30:05.896Z,95.29
2022-10-09T01:31:05.980Z,95.36
2022-10-09T01:32:05.873Z,95.25
2022-10-09T01:33:06.852Z,95.50
2022-10-09T01:34:05.846Z,95.25
2022-10-09T01:35:05.854Z,94.94
2022-10-09T01:36:05.842Z,95.40
2022-10-09T01:37:05.825Z,95.36
2022-10-09T01:38:05.817Z,95.56
2022-10-09T01:39:05.833Z,95.15
2022-10-09T01:40:05.788Z,95.19
2022-10-09T01:41:05.806Z,94.98
2022-10-09T01:42:05.787Z,95.19
2022-10-09T01:43:05.759Z,94.98
2022-10-09T01:44:05.761Z,95.19
2022-10-09T01:45:05.739Z,95.19
2022-10-09T01:46:05.782Z,94.98
2022-10-09T01:47:05.750Z,95.09
2022-10-09T01:48:05.889Z,94.68
2022-10-09T01:49:05.701Z,94.89
2022-10-09T01:50:05.699Z,94.98
2022-10-09T01:51:05.669Z,95.09
2022-10-09T01:52:05.685Z,94.98
2022-10-09T01:53:05.658Z,95.19
2022-10-09T01:54:05.648Z,95.19
2022-10-09T01:55:05.640Z,95.09
2022-10-09T01:56:05.625Z,95.29
2022-10-09T01:57:05.631Z,95.09
2022-10-09T01:58:05.608Z,95.09
2022-10-09T01:59:05.602Z,94.98
2022-10-09T02:00:05.573Z,95.19
2022-10-09T02:01:06.582Z,95.03
2022-10-09T02:02:06.524Z,94.98
2022-10-09T02:03:05.613Z,95.03
2022-10-09T02:04:05.550Z,95.44
2022-10-09T02:05:05.545Z,95.18
2022-10-09T02:06:05.533Z,95.24
2022-10-09T02:07:05.526Z,95.07
2022-10-09T02:08:05.506Z,94.76
2022-10-09T02:09:05.492Z,95.18
2022-10-09T02:10:05.483Z,95.18
2022-10-09T02:11:05.469Z,95.22
2022-10-09T02:12:05.497Z,94.49
2022-10-09T02:13:05.456Z,95.01
2022-10-09T02:14:05.449Z,95.07
2022-10-09T02:15:05.433Z,95.22
2022-10-09T02:16:05.587Z,95.01
2022-10-09T02:17:05.437Z,95.22
2022-10-09T02:18:05.409Z,95.01
2022-10-09T02:19:05.397Z,95.01
2022-10-09T02:20:05.389Z,95.32
2022-10-09T02:21:05.383Z,95.32
2022-10-09T02:22:05.390Z,95.12
2022-10-09T02:23:05.361Z,95.32
2022-10-09T02:24:05.351Z,95.12
2022-10-09T02:25:05.342Z,95.32
2022-10-09T02:26:05.332Z,95.43
2022-10-09T02:27:05.328Z,95.32
2022-10-09T02:28:05.332Z,94.91
2022-10-09T02:29:05.311Z,95.01
2022-10-09T02:30:05.296Z,95.12
2022-10-09T02:31:05.307Z,95.32
2022-10-09T02:32:05.294Z,95.32
2022-10-09T02:33:05.276Z,95.22
2022-10-09T02:34:05.251Z,95.32
2022-10-09T02:35:05.247Z,95.12
2022-10-09T02:36:05.233Z,95.01
2022-10-09T02:37:05.251Z,95.01
2022-10-09T02:38:05.221Z,95.32
2022-10-09T02:39:05.211Z,95.01
2022-10-09T02:40:10.429Z,95.22
2022-10-09T02:41:07.194Z,95.22
2022-10-09T02:42:37.106Z,95.32
2022-10-09T02:43:05.176Z,95.12
2022-10-09T02:44:05.180Z,95.32
2022-10-09T02:45:05.147Z,95.32
2022-10-09T02:46:05.173Z,95.12
2022-10-09T02:47:05.146Z,95.26
2022-10-09T02:48:05.124Z,95.37
2022-10-09T02:49:05.113Z,95.32
2022-10-09T02:50:05.109Z,95.22
2022-10-09T02:51:05.092Z,94.95
2022-10-09T02:52:05.105Z,94.54
2022-10-09T02:53:05.074Z,95.26
2022-10-09T02:54:05.064Z,95.10
2022-10-09T02:55:05.057Z,95.10
2022-10-09T02:56:05.050Z,95.15
2022-10-09T02:57:05.046Z,95.25
2022-10-09T02:58:05.026Z,95.15
2022-10-09T02:59:05.025Z,94.84
2022-10-09T03:00:05.012Z,95.25
2022-10-09T03:01:05.013Z,95.25
2022-10-09T03:02:05.162Z,95.15
2022-10-09T03:03:05.077Z,95.46
2022-10-09T03:04:04.980Z,95.15
2022-10-09T03:05:04.965Z,95.46
2022-10-09T03:06:04.967Z,95.25
2022-10-09T03:07:04.978Z,95.36
2022-10-09T03:08:04.955Z,95.56
2022-10-09T03:09:04.941Z,95.31
2022-10-09T03:10:04.930Z,95.46
2022-10-09T03:11:04.924Z,95.25
2022-10-09T03:12:04.933Z,95.36
2022-10-09T03:13:04.913Z,95.36
2022-10-09T03:14:04.896Z,95.36
2022-10-09T03:15:04.889Z,95.25
2022-10-09T03:16:04.911Z,95.46
2022-10-09T03:17:04.885Z,95.15
2022-10-09T03:18:04.862Z,95.36
2022-10-09T03:19:04.856Z,95.25
2022-10-09T03:20:04.859Z,95.36
2022-10-09T03:21:04.832Z,95.36
2022-10-09T03:22:04.892Z,95.36
2022-10-09T03:23:04.823Z,95.36
2022-10-09T03:24:04.814Z,95.56
2022-10-09T03:25:04.790Z,95.46
2022-10-09T03:26:04.791Z,95.46
2022-10-09T03:27:04.825Z,95.50
2022-10-09T03:28:04.877Z,95.25
2022-10-09T03:29:04.769Z,95.25
2022-10-09T03:30:04.763Z,95.36
2022-10-09T03:31:04.782Z,95.25
2022-10-09T03:32:04.811Z,95.40
2022-10-09T03:33:04.760Z,95.40
2022-10-09T03:34:04.727Z,95.36
2022-10-09T03:35:04.715Z,95.29
2022-10-09T03:36:04.717Z,95.40
2022-10-09T03:37:04.728Z,95.15
2022-10-09T03:38:04.697Z,94.94
2022-10-09T03:39:04.711Z,95.15
2022-10-09T03:40:04.683Z,94.88
2022-10-09T03:41:04.667Z,94.94
2022-10-09T03:42:04.682Z,94.88
2022-10-09T03:43:04.660Z,94.57
2022-10-09T03:44:04.654Z,94.36
2022-10-09T03:45:04.647Z,94.57
2022-10-09T03:46:04.627Z,94.71
2022-10-09T03:47:04.642Z,94.57
2022-10-09T03:48:04.612Z,94.36
2022-10-09T03:49:04.598Z,94.71
2022-10-09T03:50:04.595Z,94.26
2022-10-09T03:51:04.603Z,94.57
2022-10-09T03:52:04.601Z,94.26
2022-10-09T03:53:04.565Z,94.30
2022-10-09T03:54:04.569Z,94.40
2022-10-09T03:55:04.564Z,94.36
2022-10-09T03:56:04.544Z,94.57
2022-10-09T03:57:04.568Z,94.51
2022-10-09T03:58:04.531Z,94.61
2022-10-09T03:59:04.520Z,94.30
2022-10-09T04:00:04.511Z,94.30
2022-10-09T04:01:04.587Z,94.40
2022-10-09T04:02:04.518Z,94.30
2022-10-09T04:03:04.551Z,94.55
2022-10-09T04:04:04.485Z,94.55
2022-10-09T04:05:04.476Z,94.24
2022-10-09T04:06:04.470Z,94.24
2022-10-09T04:07:04.479Z,94.03
2022-10-09T04:08:04.451Z,93.93
2022-10-09T04:09:04.434Z,93.72
2022-10-09T04:10:04.434Z,93.93
2022-10-09T04:11:04.426Z,93.66
2022-10-09T04:12:04.435Z,93.76
2022-10-09T04:13:04.413Z,93.82
2022-10-09T04:14:04.401Z,93.87
2022-10-09T04:15:04.406Z,93.76
2022-10-09T04:16:04.448Z,93.72
2022-10-09T04:17:04.398Z,93.76
2022-10-09T04:18:04.369Z,93.35
2022-10-09T04:19:04.367Z,93.14
2022-10-09T04:20:04.375Z,93.14
2022-10-09T04:21:04.350Z,93.14
2022-10-09T04:22:04.363Z,93.76
2022-10-09T04:23:04.336Z,93.29
2022-10-09T04:24:04.324Z,93.14
2022-10-09T04:25:04.318Z,93.24
2022-10-09T04:26:04.309Z,93.24
2022-10-09T04:27:04.348Z,93.24
2022-10-09T04:28:04.309Z,93.97
2022-10-09T04:29:04.283Z,93.97
2022-10-09T04:30:04.280Z,93.45
2022-10-09T04:31:04.268Z,93.35
2022-10-09T04:32:04.275Z,94.28
2022-10-09T04:33:04.983Z,94.01
2022-10-09T04:34:04.249Z,94.01
2022-10-09T04:35:04.233Z,93.97
2022-10-09T04:36:04.236Z,94.01
2022-10-09T04:37:04.251Z,93.80
2022-10-09T04:38:04.214Z,93.91
2022-10-09T04:39:04.211Z,93.76
2022-10-09T04:40:04.196Z,94.43
2022-10-09T04:41:04.196Z,93.80
2022-10-09T04:42:04.203Z,93.76
2022-10-09T04:43:04.183Z,93.91
2022-10-09T04:44:04.164Z,94.43
2022-10-09T04:45:04.160Z,94.12
2022-10-09T04:46:04.222Z,94.43
2022-10-09T04:47:06.184Z,94.18
2022-10-09T04:48:04.122Z,94.22
2022-10-09T04:49:04.126Z,94.07
2022-10-09T04:50:04.126Z,94.07
2022-10-09T04:51:04.114Z,94.07
2022-10-09T04:52:04.125Z,93.97
2022-10-09T04:53:04.099Z,94.49
2022-10-09T04:54:04.088Z,94.38
2022-10-09T04:55:04.083Z,94.28
2022-10-09T04:56:04.072Z,94.45
2022-10-09T04:57:04.090Z,94.13
2022-10-09T04:58:04.058Z,94.86
2022-10-09T04:59:04.050Z,94.24
2022-10-09T05:00:04.025Z,94.55
2022-10-09T05:01:04.079Z,94.09
2022-10-09T05:02:04.116Z,94.96
2022-10-09T05:03:04.013Z,95.42
2022-10-09T05:04:04.016Z,95.53
2022-10-09T05:05:03.999Z,95.15
2022-10-09T05:06:03.989Z,95.15
2022-10-09T05:07:03.995Z,95.57
2022-10-09T05:08:03.970Z,95.78
2022-10-09T05:09:03.965Z,95.78
2022-10-09T05:10:03.950Z,95.67
2022-10-09T05:11:03.945Z,96.30
2022-10-09T05:12:03.953Z,95.99
2022-10-09T05:13:03.928Z,95.94
2022-10-09T05:14:03.922Z,95.94
2022-10-09T05:15:03.911Z,95.94
2022-10-09T05:16:03.936Z,95.94
2022-10-09T05:17:15.227Z,96.04
2022-10-09T05:18:05.894Z,95.53
2022-10-09T05:19:03.882Z,96.15
2022-10-09T05:20:03.863Z,96.15
2022-10-09T05:21:03.864Z,95.69
2022-10-09T05:22:03.873Z,95.73
2022-10-09T05:23:03.848Z,96.00
2022-10-09T05:24:06.110Z,96.21
2022-10-09T05:25:05.835Z,96.21
2022-10-09T05:26:03.823Z,96.11
2022-10-09T05:27:03.831Z,96.00
2022-10-09T05:28:03.832Z,96.11
2022-10-09T05:29:03.790Z,95.90
2022-10-09T05:30:03.788Z,95.90
2022-10-09T05:31:03.783Z,96.21
2022-10-09T05:32:03.840Z,96.31
2022-10-09T05:33:03.772Z,96.31
2022-10-09T05:34:03.756Z,96.58
2022-10-09T05:35:03.742Z,96.52
2022-10-09T05:36:03.731Z,96.52
2022-10-09T05:37:03.738Z,96.62
2022-10-09T05:38:03.718Z,96.42
2022-10-09T05:39:03.702Z,96.42
2022-10-09T05:40:03.698Z,96.42
2022-10-09T05:41:03.690Z,96.52
2022-10-09T05:42:03.735Z,96.62
2022-10-09T05:43:03.665Z,96.42
2022-10-09T05:44:03.667Z,96.62
2022-10-09T05:45:03.658Z,97.04
2022-10-09T05:46:03.690Z,96.73
2022-10-09T05:47:03.659Z,96.62
2022-10-09T05:48:03.680Z,97.04
2022-10-09T05:49:03.632Z,96.62
2022-10-09T05:50:03.629Z,96.83
2022-10-09T05:51:03.629Z,96.73
2022-10-09T05:52:03.617Z,96.52
2022-10-09T05:53:03.595Z,96.52
2022-10-09T05:54:03.583Z,96.94
2022-10-09T05:55:03.659Z,96.83
2022-10-09T05:56:03.806Z,96.52
2022-10-09T05:57:04.602Z,96.94
2022-10-09T05:58:03.553Z,96.62
2022-10-09T05:59:03.531Z,96.73
2022-10-09T06:00:03.535Z,96.48
2022-10-09T06:01:03.608Z,96.73
2022-10-09T06:02:03.568Z,97.00
2022-10-09T06:03:03.513Z,96.69
2022-10-09T06:04:03.506Z,96.69
2022-10-09T06:05:03.501Z,96.69
2022-10-09T06:06:03.593Z,96.89
2022-10-09T06:07:03.497Z,96.69
2022-10-09T06:08:03.473Z,96.69
2022-10-09T06:09:03.465Z,96.69
2022-10-09T06:10:03.457Z,96.48
2022-10-09T06:11:03.460Z,96.54
2022-10-09T06:12:03.463Z,96.69
2022-10-09T06:13:03.435Z,96.69
2022-10-09T06:14:03.427Z,96.89
2022-10-09T06:15:03.416Z,96.33
2022-10-09T06:16:03.400Z,96.75
2022-10-09T06:17:03.501Z,96.64
2022-10-09T06:18:03.388Z,97.00
2022-10-09T06:19:03.399Z,96.69
2022-10-09T06:20:03.375Z,96.64
2022-10-09T06:21:03.366Z,96.54
2022-10-09T06:22:03.377Z,96.64
2022-10-09T06:23:03.344Z,96.44
2022-10-09T06:24:03.337Z,96.44
2022-10-09T06:25:03.335Z,96.54
2022-10-09T06:26:03.324Z,96.44
2022-10-09T06:27:03.326Z,96.50
2022-10-09T06:28:03.361Z,96.44
2022-10-09T06:29:03.300Z,96.29
2022-10-09T06:30:03.289Z,96.54
2022-10-09T06:31:03.303Z,96.19
2022-10-09T06:32:03.288Z,96.19
2022-10-09T06:33:03.254Z,96.33
2022-10-09T06:34:03.271Z,96.33
2022-10-09T06:35:03.234Z,96.02
2022-10-09T06:36:09.713Z,95.87
2022-10-09T06:37:05.242Z,96.08
2022-10-09T06:38:03.216Z,95.87
2022-10-09T06:39:03.203Z,95.87
2022-10-09T06:40:03.188Z,96.08
2022-10-09T06:41:03.184Z,96.08
2022-10-09T06:42:03.205Z,95.83
2022-10-09T06:43:03.162Z,95.93
2022-10-09T06:44:03.146Z,95.93
2022-10-09T06:45:03.142Z,95.83
2022-10-09T06:46:03.231Z,95.41
2022-10-09T06:47:03.135Z,95.72
2022-10-09T06:48:03.115Z,95.72
2022-10-09T06:49:03.109Z,95.68
2022-10-09T06:50:03.099Z,95.57
2022-10-09T06:51:03.073Z,95.47
2022-10-09T06:52:03.103Z,95.37
2022-10-09T06:53:03.072Z,95.51
2022-10-09T06:54:03.069Z,95.47
2022-10-09T06:55:03.032Z,95.20
2022-10-09T06:56:03.034Z,95.00
2022-10-09T06:57:03.041Z,94.85
2022-10-09T06:58:03.005Z,94.85
2022-10-09T06:59:02.992Z,94.81
2022-10-09T07:00:02.990Z,95.01
2022-10-09T07:01:03.031Z,95.43
2022-10-09T07:02:03.114Z,95.32
2022-10-09T07:03:03.021Z,95.18
2022-10-09T07:04:02.954Z,95.28
2022-10-09T07:05:02.945Z,95.07
2022-10-09T07:06:02.942Z,94.93
2022-10-09T07:07:02.940Z,94.62
2022-10-09T07:08:02.916Z,94.10
2022-10-09T07:09:02.901Z,94.51
2022-10-09T07:10:02.976Z,94.06
2022-10-09T07:11:02.883Z,94.37
2022-10-09T07:12:02.892Z,94.20
2022-10-09T07:13:02.865Z,94.06
2022-10-09T07:14:02.845Z,93.85
2022-10-09T07:15:02.834Z,93.64
2022-10-09T07:16:04.946Z,93.95
2022-10-09T07:17:03.836Z,93.70
2022-10-09T07:18:02.804Z,93.70
2022-10-09T07:19:02.791Z,93.91
2022-10-09T07:20:02.780Z,93.49
2022-10-09T07:21:02.774Z,93.29
2022-10-09T07:22:02.778Z,93.39
2022-10-09T07:23:02.745Z,92.83
2022-10-09T07:24:02.755Z,93.08
2022-10-09T07:25:02.730Z,93.24
2022-10-09T07:26:02.707Z,93.04
2022-10-09T07:27:02.708Z,93.35
2022-10-09T07:28:02.727Z,93.04
2022-10-09T07:29:02.685Z,92.89
2022-10-09T07:30:02.674Z,92.72
2022-10-09T07:31:02.689Z,93.24
2022-10-09T07:32:05.766Z,93.24
2022-10-09T07:33:03.632Z,92.42
2022-10-09T07:34:02.633Z,92.38
2022-10-09T07:35:02.617Z,92.11
2022-10-09T07:36:02.605Z,91.90
2022-10-09T07:37:02.620Z,92.00
2022-10-09T07:38:02.583Z,91.49
2022-10-09T07:39:02.568Z,92.00
2022-10-09T07:40:02.562Z,91.96
2022-10-09T07:41:02.545Z,91.71
2022-10-09T07:42:02.550Z,91.71
2022-10-09T07:43:02.523Z,91.71
2022-10-09T07:44:02.514Z,91.50
2022-10-09T07:45:02.501Z,91.36
2022-10-09T07:46:02.533Z,91.88
2022-10-09T07:47:02.488Z,92.19
2022-10-09T07:48:02.466Z,91.77
2022-10-09T07:49:02.476Z,91.46
2022-10-09T07:50:02.455Z,91.52
2022-10-09T07:51:02.436Z,91.73
2022-10-09T07:52:02.449Z,91.22
2022-10-09T07:53:02.419Z,91.01
2022-10-09T07:54:02.467Z,91.11
2022-10-09T07:55:02.389Z,91.38
2022-10-09T07:56:02.447Z,90.92
2022-10-09T07:57:02.400Z,91.07
2022-10-09T07:58:02.367Z,91.64
2022-10-09T07:59:02.353Z,91.85
2022-10-09T08:00:02.339Z,91.64
2022-10-09T08:01:02.365Z,91.09
2022-10-09T08:02:02.448Z,90.67
2022-10-09T08:03:02.345Z,90.37
2022-10-09T08:04:02.298Z,90.67
2022-10-09T08:05:02.288Z,90.26
2022-10-09T08:06:02.278Z,90.33
2022-10-09T08:07:02.277Z,90.33
2022-10-09T08:08:02.258Z,90.47
2022-10-09T08:09:02.248Z,89.91
2022-10-09T08:10:02.238Z,90.33
2022-10-09T08:11:02.220Z,90.22
2022-10-09T08:12:02.236Z,90.33
2022-10-09T08:13:02.205Z,90.12
2022-10-09T08:14:02.204Z,90.22
2022-10-09T08:15:02.183Z,90.06
2022-10-09T08:16:02.260Z,90.01
2022-10-09T08:17:02.191Z,89.61
2022-10-09T08:18:02.152Z,89.91
2022-10-09T08:19:02.146Z,89.56
2022-10-09T08:20:02.140Z,90.01
2022-10-09T08:21:02.121Z,90.22
2022-10-09T08:22:03.582Z,89.67
2022-10-09T08:23:03.100Z,89.77
2022-10-09T08:24:02.098Z,89.77
2022-10-09T08:25:02.100Z,89.52
2022-10-09T08:26:02.074Z,89.31
2022-10-09T08:27:02.070Z,89.31
2022-10-09T08:28:02.143Z,89.52
2022-10-09T08:29:02.050Z,89.01
2022-10-09T08:30:02.045Z,89.42
2022-10-09T08:31:02.076Z,88.90
2022-10-09T08:32:02.037Z,88.96
2022-10-09T08:33:01.998Z,88.45
2022-10-09T08:34:02.001Z,88.76
2022-10-09T08:35:01.987Z,88.86
2022-10-09T08:36:01.972Z,88.62
2022-10-09T08:37:01.982Z,88.72
2022-10-09T08:38:01.954Z,88.45
2022-10-09T08:39:01.940Z,87.69
2022-10-09T08:40:01.935Z,88.10
2022-10-09T08:41:01.935Z,88.10
2022-10-09T08:42:01.936Z,87.79
2022-10-09T08:43:28.298Z,87.85
2022-10-09T08:44:01.934Z,87.13
2022-10-09T08:45:01.888Z,86.72
2022-10-09T08:46:01.972Z,87.65
2022-10-09T08:47:01.888Z,87.20
2022-10-09T08:48:01.872Z,87.04
2022-10-09T08:49:01.851Z,86.68
2022-10-09T08:50:01.837Z,86.68
2022-10-09T08:51:01.827Z,86.58
2022-10-09T08:52:01.829Z,86.79
2022-10-09T08:53:01.809Z,86.24
2022-10-09T08:54:01.790Z,85.93
2022-10-09T08:55:02.790Z,86.27
2022-10-09T08:56:01.773Z,86.07
2022-10-09T08:57:01.783Z,86.07
2022-10-09T08:58:01.760Z,86.24
2022-10-09T08:59:01.743Z,85.93
2022-10-09T09:00:01.737Z,86.13
2022-10-09T09:01:01.729Z,86.13
2022-10-09T09:02:01.819Z,85.58
2022-10-09T09:03:01.777Z,85.41
2022-10-09T09:04:01.701Z,85.52
2022-10-09T09:05:01.676Z,85.52
2022-10-09T09:06:01.680Z,85.41
2022-10-09T09:07:01.689Z,85.31
2022-10-09T09:08:01.656Z,85.17
2022-10-09T09:09:01.646Z,85.27
2022-10-09T09:10:01.663Z,85.58
2022-10-09T09:11:01.625Z,85.38
2022-10-09T09:12:01.634Z,85.38
2022-10-09T09:13:01.600Z,85.64
2022-10-09T09:14:01.601Z,85.64
2022-10-09T09:15:01.609Z,85.33
2022-10-09T09:16:01.646Z,85.44
2022-10-09T09:17:01.582Z,85.54
2022-10-09T09:18:01.581Z,85.19
2022-10-09T09:19:01.548Z,85.60
2022-10-09T09:20:01.561Z,85.09
2022-10-09T09:21:01.522Z,85.30
2022-10-09T09:22:01.550Z,85.50
2022-10-09T09:23:01.535Z,84.27
2022-10-09T09:24:01.506Z,84.17
2022-10-09T09:25:01.495Z,84.06
2022-10-09T09:26:01.478Z,84.27
2022-10-09T09:27:01.579Z,84.68
2022-10-09T09:28:01.469Z,84.64
2022-10-09T09:29:01.580Z,84.44
2022-10-09T09:30:01.453Z,84.44
2022-10-09T09:31:01.463Z,84.33
2022-10-09T09:32:01.469Z,83.88
2022-10-09T09:33:01.404Z,83.78
2022-10-09T09:34:01.479Z,84.09
2022-10-09T09:35:01.389Z,83.78
2022-10-09T09:36:01.408Z,83.95
2022-10-09T09:37:01.398Z,83.74
2022-10-09T09:38:01.408Z,83.33
2022-10-09T09:41:03.326Z,82.41
2022-10-09T09:42:01.360Z,82.71
2022-10-09T09:43:04.794Z,82.71
2022-10-09T09:44:02.309Z,82.00
2022-10-09T09:45:01.282Z,81.86
2022-10-09T09:46:01.276Z,83.19
2022-10-09T09:47:01.373Z,83.19
2022-10-09T09:48:01.272Z,82.95
2022-10-09T09:49:03.776Z,82.57
2022-10-09T09:50:01.301Z,82.95
2022-10-09T09:51:23.514Z,83.15
2022-10-09T09:52:03.278Z,83.15
2022-10-09T09:53:01.259Z,82.91
2022-10-09T09:54:01.230Z,81.99
2022-10-09T09:55:01.280Z,82.70
2022-10-09T09:56:01.199Z,82.81
2022-10-09T09:57:13.988Z,82.67
2022-10-09T09:58:03.182Z,81.85
2022-10-09T09:59:01.181Z,81.34
2022-10-09T10:00:01.199Z,81.81
2022-10-09T10:01:01.190Z,81.30
2022-10-09T10:02:01.168Z,81.10
2022-10-09T10:03:01.125Z,81.30
2022-10-09T10:04:01.160Z,81.60
2022-10-09T10:05:01.171Z,81.57
2022-10-09T10:06:01.112Z,81.05
2022-10-09T10:07:01.146Z,80.91
2022-10-09T10:08:01.085Z,80.91
2022-10-09T10:09:01.114Z,80.30
2022-10-09T10:10:01.053Z,80.30
2022-10-09T10:11:01.055Z,79.55
2022-10-09T10:12:01.070Z,79.86
2022-10-09T10:13:01.022Z,79.86
2022-10-09T10:14:01.022Z,80.16
2022-10-09T10:15:01.005Z,80.23
2022-10-09T10:16:01.030Z,80.23
2022-10-09T10:17:01.057Z,79.93
2022-10-09T10:18:01.066Z,79.82
2022-10-09T10:19:00.987Z,79.79
2022-10-09T10:20:00.977Z,79.27
2022-10-09T10:21:00.958Z,78.87
2022-10-09T10:22:00.953Z,78.53
2022-10-09T10:23:01.975Z,78.02
2022-10-09T10:25:00.908Z,78.12
2022-10-09T10:26:00.927Z,78.02
2022-10-09T10:27:00.932Z,77.57
2022-10-09T10:28:00.901Z,77.57
2022-10-09T10:29:00.873Z,77.67
2022-10-09T10:30:00.881Z,77.53
2022-10-09T10:31:00.921Z,76.72
2022-10-09T10:32:00.886Z,76.21
2022-10-09T10:33:00.816Z,76.31
2022-10-09T10:34:00.840Z,76.48
2022-10-09T10:35:00.865Z,74.69
2022-10-09T10:36:00.795Z,75.40
2022-10-09T10:37:03.202Z,76.01
2022-10-09T10:38:00.796Z,74.89
2022-10-09T10:39:00.777Z,74.38
2022-10-09T10:40:00.763Z,73.67
2022-10-09T10:41:00.791Z,72.82
2022-10-09T10:42:00.775Z,72.41
2022-10-09T10:43:00.729Z,72.62
2022-10-09T10:44:00.747Z,72.38
2022-10-09T10:45:00.745Z,71.57
2022-10-09T10:46:00.724Z,71.36
2022-10-09T10:47:00.805Z,69.84
2022-10-09T10:48:00.698Z,69.81
2022-10-09T10:49:00.694Z,69.60
2022-10-09T10:50:00.664Z,69.91
2022-10-09T10:51:00.656Z,70.01
2022-10-09T10:52:00.702Z,70.11
2022-10-09T10:53:00.647Z,69.37
2022-10-09T10:54:00.617Z,69.17
2022-10-09T10:55:00.628Z,68.73
2022-10-09T10:56:05.025Z,68.22
2022-10-09T10:57:01.618Z,68.52
2022-10-09T10:58:00.630Z,67.91
2022-10-09T10:59:00.597Z,68.01
2022-10-09T11:00:00.578Z,68.01
2022-10-09T11:01:00.596Z,67.81
2022-10-09T11:02:00.573Z,67.50
2022-10-09T11:03:00.609Z,67.17
2022-10-09T11:04:00.541Z,66.46
2022-10-09T11:05:00.538Z,66.26
2022-10-09T11:06:00.544Z,65.62
2022-10-09T11:07:00.520Z,66.02
2022-10-09T11:08:00.528Z,65.75
2022-10-09T11:09:00.499Z,64.91
2022-10-09T11:10:00.471Z,63.79
2022-10-09T11:11:00.456Z,63.08
2022-10-09T11:12:00.459Z,62.98
2022-10-09T11:13:00.810Z,63.15
2022-10-09T11:14:00.418Z,62.65
2022-10-09T11:15:00.433Z,61.74
2022-10-09T11:16:00.466Z,62.85
2022-10-09T11:17:00.427Z,61.43
2022-10-09T11:18:00.410Z,61.91
2022-10-09T11:19:00.386Z,61.80
2022-10-09T11:20:00.388Z,61.10
2022-10-09T11:21:00.360Z,62.01
2022-10-09T11:22:00.412Z,61.37
2022-10-09T11:23:00.356Z,61.27
2022-10-09T11:24:00.340Z,60.16
2022-10-09T11:25:00.340Z,59.34
2022-10-09T11:26:00.297Z,59.07
2022-10-09T11:27:03.382Z,58.47
2022-10-09T11:28:01.276Z,57.73
2022-10-09T11:29:00.286Z,58.67
2022-10-09T11:30:00.258Z,57.73
2022-10-09T11:31:00.268Z,58.44
2022-10-09T11:32:00.364Z,58.44
2022-10-09T11:33:00.263Z,57.42
2022-10-09T11:34:00.222Z,57.42
2022-10-09T11:35:00.225Z,57.22
2022-10-09T11:36:00.200Z,56.82
2022-10-09T11:37:00.184Z,56.21
2022-10-09T11:38:00.399Z,57.22
2022-10-09T11:39:00.204Z,57.40
2022-10-09T11:40:00.170Z,57.12
2022-10-09T11:41:03.897Z,56.48
2022-10-09T11:42:01.189Z,56.99
2022-10-09T11:43:00.179Z,56.92
2022-10-09T11:44:00.232Z,58.71
2022-10-09T11:45:00.173Z,57.93
2022-10-09T11:46:00.319Z,58.13
2022-10-09T11:47:01.947Z,57.80
2022-10-09T11:48:01.184Z,57.20
2022-10-09T11:49:00.190Z,56.89
2022-10-09T11:50:00.151Z,57.09
2022-10-09T11:51:00.209Z,55.88
2022-10-09T11:52:00.158Z,55.68
2022-10-09T11:53:00.298Z,55.07
2022-10-09T11:54:00.120Z,54.74
2022-10-09T11:55:00.101Z,55.07
2022-10-09T11:56:00.031Z,55.75
2022-10-09T11:57:00.087Z,55.75
2022-10-09T11:58:00.036Z,56.15
2022-10-09T11:59:00.071Z,55.15
2022-10-09T12:00:00.152Z,55.35
2022-10-09T12:01:00.001Z,54.74
2022-10-09T12:02:00.265Z,55.44
2022-10-09T12:03:00.035Z,55.32
2022-10-09T12:04:00.745Z,54.71
2022-10-09T12:05:00.940Z,54.51
2022-10-09T12:06:00.057Z,54.94
2022-10-09T12:07:00.082Z,54.00
2022-10-09T12:08:00.003Z,54.21
2022-10-09T12:08:59.983Z,54.82
2022-10-09T12:09:59.950Z,55.15
2022-10-09T12:10:59.892Z,55.11
2022-10-09T12:11:59.936Z,55.32
2022-10-09T12:12:59.961Z,55.11
2022-10-09T12:13:59.921Z,55.52
2022-10-09T12:14:59.887Z,53.50
2022-10-09T12:15:59.875Z,52.87
2022-10-09T12:16:59.982Z,53.98
2022-10-09T12:17:59.782Z,54.38
2022-10-09T12:18:59.780Z,54.18
2022-10-09T12:20:01.188Z,54.58
2022-10-09T12:21:00.744Z,54.08
2022-10-09T12:21:59.784Z,54.36
2022-10-09T12:23:26.339Z,54.08
2022-10-09T12:24:01.703Z,54.08
2022-10-09T12:24:59.721Z,53.27
2022-10-09T12:25:59.741Z,53.58
2022-10-09T12:26:59.717Z,53.27
2022-10-09T12:27:59.666Z,53.85
2022-10-09T12:28:59.662Z,53.85
2022-10-09T12:29:59.670Z,53.05
2022-10-09T12:30:59.729Z,53.34
2022-10-09T12:31:59.620Z,53.75
2022-10-09T12:32:59.639Z,51.93
2022-10-09T12:33:59.652Z,52.14
2022-10-09T12:34:59.609Z,50.84
2022-10-09T12:35:59.644Z,51.48
2022-10-09T12:36:59.571Z,51.68
2022-10-09T12:37:59.599Z,53.47
2022-10-09T12:38:59.579Z,53.38
2022-10-09T12:39:59.550Z,52.67
2022-10-09T12:40:59.602Z,52.03
2022-10-09T12:41:59.556Z,52.44
2022-10-09T12:42:59.575Z,51.93
2022-10-09T12:43:59.523Z,53.45
2022-10-09T12:44:59.524Z,52.94
2022-10-09T12:45:59.539Z,51.43
2022-10-09T12:46:59.501Z,50.72
2022-10-09T12:47:59.467Z,50.49
2022-10-09T12:48:59.483Z,51.23
2022-10-09T12:49:59.482Z,50.70
2022-10-09T12:50:59.471Z,52.82
2022-10-09T12:51:59.423Z,51.40
2022-10-09T12:52:59.496Z,49.58
2022-10-09T12:53:59.432Z,49.58
2022-10-09T12:54:59.408Z,50.39